Air Sicilia Virtual Airways - Route

Air Sicilia Virtual Airways - SIC065A

( IT ) LICB - 00:00
Comiso Airport
COMISO ( CIY )
plane_to ( IT ) LICC - 00:00
Catania-Fontanarossa Airport
CATANIA ( CTA )

AIRPORT NEAR NAVIGATION AIDS

Type Name Frequency

METAR / TAF
LICB 181450Z 27008KT 9999 FEW030TCU SCT035 29/19 Q1015

RUNWAY INFORMATION

Runway Runway length Runway width Runway elevation Runway displaced threshold Runway heading
05 8070 148 0 0 0
23 8070 148 0 0 0

AIRPORT FREQUENCIES

Type Name Frequency

AIRPORT NEAR NAVIGATION AIDS

Type Name Frequency
NDB Catania 345 KHZ
VOR-DME Catania Fontanarossa 116250 KHZ
NDB Catania Fontanarossa 407 KHZ

METAR / TAF
LICC 181520Z 25005KT 9999 FEW015TCU SCT055 27/19 Q1015
LICC 181100Z 1812/1912 06012KT 9999 SCT040 TEMPO 1812/1818 4000 TSRA BECMG 1817/1819 VRB05KT BECMG 1908/1910 08012KT

RUNWAY INFORMATION

Runway Runway length Runway width Runway elevation Runway displaced threshold Runway heading
08 7989 148 37 312 84
26 7989 148 17 279 264

AIRPORT FREQUENCIES

Type Name Frequency
APP APP 119.25 MHZ
DIR DIRECTOR 120.8 MHZ
GND GND 129.725 MHZ
TWR TWR 118.7 MHZ

Flightplan

VFR

Air Sicilia Virtual Airways Fleets

AVAILABLE AIRCRAFTS for route at this time in Comiso Airport

At this time no aircraft Air Sicilia Virtual Airways is available at Comiso Airport
Only Charter flights.

35.8968 NM

Distance in nautical miles.

€ 248,00

Ticket price for this flight.

0 h.

Estimated flight time.



07-08-2018
Aerosoft Professional Flight Planner PFPX

PFPX - Professional Flight Planner X - è un nuovo ed innovativo strumento di pianificazione del volo sviluppato da piloti e dispatcher del mondo reale. È un'aggiunta preziosa e realistica alla tua esperienza di simulaz ....


19-07-2018
Aerosoft Oslo X

L'Aeroporto di Oslo-Gardermoen (IATA: OSL, ICAO: ENGM) è il principale aeroporto norvegese e il 19° in Europa, è situato vicino alla cittadina di Ullensaker nella contea di Akershus e serve la capitale Oslo. Ha sostit ....


21-06-2018
Aerosoft Malpensa Professional P3Dv4

L'Aeroporto di Milano-Malpensa (IATA: MXP, ICAO: LIMC) è un aeroporto italiano situato nella provincia di Varese in Lombardia, ma considerato come il principale aeroporto di Milano.

È il secondo aeroporto ital ....


06-06-2018
1° Raduno Air Sicilia Virtual - parla il C.E.O.

Grande successo per il 1° Raduno di Compagnia dell'Air Sicilia Virtual, che ha visto i membri della Crew presenti il 4 giugno 2018 a Thiene ( VI ) , cimentarsi dal vivo con le reali ....


24-05-2018
Aerosoft Airport Rome XP

Tra le nostre recensioni non poteva mancare certo la nuova uscita Aerosoft per X-Plane, stiamo parlando di Airport Rome XP, finalmente un Add-on pay completo dell'Aeroporto di Roma Fiumicino per gli utilizzatori del simu ....